createdAt,value
2022-11-26T00:05:47.851Z,101837.19
2022-11-26T00:16:13.286Z,101840.84
2022-11-26T00:26:34.827Z,101845.09
2022-11-26T00:36:56.297Z,101845.91
2022-11-26T00:47:17.775Z,101862.41
2022-11-26T00:57:39.259Z,101879.84
2022-11-26T01:08:07.407Z,101901.66
2022-11-26T01:18:36.000Z,101907.25
2022-11-26T01:28:57.468Z,101919.44
2022-11-26T01:39:21.517Z,101930.72
2022-11-26T01:49:42.967Z,101943.81
2022-11-26T02:00:05.132Z,101946.50
2022-11-26T02:10:26.481Z,101956.94
2022-11-26T02:21:00.077Z,101974.94
2022-11-26T02:31:46.536Z,101978.41
2022-11-26T02:42:40.611Z,101988.66
2022-11-26T02:53:04.218Z,101990.69
2022-11-26T03:03:30.733Z,101987.28
2022-11-26T03:13:52.277Z,101984.66
2022-11-26T03:24:14.079Z,101989.88
2022-11-26T03:34:35.707Z,101987.25
2022-11-26T03:44:57.301Z,101994.09
2022-11-26T03:55:18.891Z,101994.16
2022-11-26T04:05:40.428Z,102009.69
2022-11-26T04:16:02.064Z,102030.63
2022-11-26T04:26:23.774Z,102036.03
2022-11-26T04:36:45.261Z,102056.78
2022-11-26T04:47:06.755Z,102069.09
2022-11-26T04:57:28.203Z,102067.66
2022-11-26T05:07:49.797Z,102083.31
2022-11-26T05:18:11.335Z,102094.63
2022-11-26T05:28:32.863Z,102100.69
2022-11-26T05:38:56.466Z,102118.84
2022-11-26T05:49:17.978Z,102124.78
2022-11-26T05:59:39.456Z,102135.25
2022-11-26T06:10:00.915Z,102147.22
2022-11-26T06:20:22.374Z,102148.81
2022-11-26T06:30:45.301Z,102159.09
2022-11-26T06:41:08.457Z,102160.72
2022-11-26T06:51:31.867Z,102181.16
2022-11-26T07:01:53.404Z,102181.00
2022-11-26T07:12:14.967Z,102191.16
2022-11-26T07:22:36.473Z,102210.91
2022-11-26T07:32:57.933Z,102220.38
2022-11-26T07:43:19.482Z,102222.00
2022-11-26T07:53:40.959Z,102220.13
2022-11-26T08:04:05.776Z,102231.16
2022-11-26T08:14:27.275Z,102243.03
2022-11-26T08:24:49.843Z,102255.88
2022-11-26T08:35:12.132Z,102266.13
2022-11-26T08:45:33.692Z,102262.63
2022-11-26T08:56:09.605Z,102269.31
2022-11-26T09:06:33.629Z,102274.34
2022-11-26T09:16:56.679Z,102284.41
2022-11-26T09:27:18.338Z,102292.16
2022-11-26T09:37:39.841Z,102309.31
2022-11-26T09:48:03.079Z,102308.13
2022-11-26T09:58:36.791Z,102325.19
2022-11-26T10:09:10.308Z,102311.13
2022-11-26T10:19:34.890Z,102319.47
2022-11-26T10:30:04.963Z,102326.94
2022-11-26T10:40:29.518Z,102335.28
2022-11-26T10:51:26.694Z,102332.47
2022-11-26T11:01:51.716Z,102333.94
2022-11-26T11:12:21.818Z,102326.66
2022-11-26T11:22:47.031Z,102336.84
2022-11-26T11:33:20.049Z,102327.16
2022-11-26T11:43:41.583Z,102322.00
2022-11-26T11:54:12.950Z,102314.19
2022-11-26T12:05:10.080Z,102311.59
2022-11-26T12:15:38.587Z,102303.63
2022-11-26T12:26:26.247Z,102317.38
2022-11-26T12:36:53.084Z,102317.38
2022-11-26T12:47:26.113Z,102328.47
2022-11-26T12:57:57.569Z,102328.69
2022-11-26T13:08:37.368Z,102326.88
2022-11-26T13:19:06.878Z,102313.84
2022-11-26T13:30:06.152Z,102305.69
2022-11-26T13:40:50.864Z,102292.66
2022-11-26T13:51:30.671Z,102285.78
2022-11-26T14:01:52.223Z,102280.53
2022-11-26T14:12:17.828Z,102278.72
2022-11-26T14:22:39.999Z,102276.91
2022-11-26T14:33:08.511Z,102272.56
2022-11-26T14:43:30.346Z,102267.38
2022-11-26T14:53:52.910Z,102265.69
2022-11-26T15:04:29.607Z,102273.50
2022-11-26T15:14:58.860Z,102271.72
2022-11-26T15:25:26.168Z,102287.19
2022-11-26T15:35:56.504Z,102274.97
2022-11-26T15:46:28.134Z,102287.03
2022-11-26T15:57:05.075Z,102291.41
2022-11-26T16:07:32.169Z,102288.75
2022-11-26T16:17:53.962Z,102276.66
2022-11-26T16:28:15.763Z,102255.06
2022-11-26T16:38:37.243Z,102264.47
2022-11-26T16:48:59.221Z,102269.59
2022-11-26T16:59:24.193Z,102262.69
2022-11-26T17:09:46.043Z,102270.34
2022-11-26T17:20:22.558Z,102272.00
2022-11-26T17:30:44.993Z,102269.34
2022-11-26T17:41:06.862Z,102277.09
2022-11-26T17:51:29.413Z,102265.84
2022-11-26T18:01:50.979Z,102257.25
2022-11-26T18:12:30.950Z,102242.47
2022-11-26T18:22:54.681Z,102245.94
2022-11-26T18:33:16.413Z,102239.00
2022-11-26T18:43:38.962Z,102246.75
2022-11-26T18:54:01.711Z,102240.00
2022-11-26T19:04:23.216Z,102238.31
2022-11-26T19:14:44.720Z,102236.59
2022-11-26T19:25:07.990Z,102227.88
2022-11-26T19:35:29.546Z,102228.81
2022-11-26T19:45:51.074Z,102219.59
2022-11-26T19:56:21.717Z,102210.47
2022-11-26T20:06:43.744Z,102202.22
2022-11-26T20:17:05.164Z,102197.31
2022-11-26T20:27:26.656Z,102205.09
2022-11-26T20:37:48.186Z,102202.78
2022-11-26T20:48:09.779Z,102221.00
2022-11-26T20:58:31.627Z,102240.06
2022-11-26T21:08:53.148Z,102252.19
2022-11-26T21:19:14.930Z,102259.06
2022-11-26T21:29:36.565Z,102270.44
2022-11-26T21:39:58.069Z,102254.09
2022-11-26T21:50:19.772Z,102250.56
2022-11-26T22:00:42.363Z,102230.66
2022-11-26T22:11:11.894Z,102219.44
2022-11-26T22:21:36.559Z,102211.56
2022-11-26T22:31:58.083Z,102166.72
2022-11-26T22:42:19.603Z,102145.94
2022-11-26T22:52:42.153Z,102151.91
2022-11-26T23:03:03.800Z,102143.38
2022-11-26T23:13:25.378Z,102140.97
2022-11-26T23:23:47.691Z,102144.44
2022-11-26T23:34:10.062Z,102130.69
2022-11-26T23:44:31.563Z,102125.56
2022-11-26T23:54:53.070Z,102112.69
